createdAt,value
2023-03-04T00:02:17.130Z,100943.19
2023-03-04T00:04:44.893Z,100938.22
2023-03-04T00:07:16.660Z,100939.66
2023-03-04T00:09:44.439Z,100939.53
2023-03-04T00:12:12.251Z,100940.78
2023-03-04T00:14:40.077Z,100950.91
2023-03-04T00:17:07.967Z,100945.50
2023-03-04T00:19:35.932Z,100945.81
2023-03-04T00:22:04.196Z,100947.50
2023-03-04T00:24:32.175Z,100946.97
2023-03-04T00:27:00.247Z,100927.28
2023-03-04T00:29:29.281Z,100939.13
2023-03-04T00:31:57.179Z,100934.41
2023-03-04T00:34:25.098Z,100928.69
2023-03-04T00:36:52.914Z,100935.66
2023-03-04T00:39:20.625Z,100932.09
2023-03-04T00:41:48.413Z,100933.53
2023-03-04T00:44:16.413Z,100937.66
2023-03-04T00:46:44.167Z,100930.69
2023-03-04T00:49:12.150Z,100935.09
2023-03-04T00:51:39.936Z,100933.09
2023-03-04T00:54:07.736Z,100926.81
2023-03-04T00:56:35.561Z,100926.28
2023-03-04T00:59:03.372Z,100918.69
2023-03-04T01:01:31.341Z,100931.53
2023-03-04T01:03:59.131Z,100931.53
2023-03-04T01:06:26.962Z,100924.56
2023-03-04T01:08:54.817Z,100923.84
2023-03-04T01:11:22.584Z,100918.16
2023-03-04T01:13:50.406Z,100917.28
2023-03-04T01:16:18.169Z,100915.44
2023-03-04T01:18:47.584Z,100903.03
2023-03-04T01:21:15.369Z,100909.31
2023-03-04T01:23:43.283Z,100902.16
2023-03-04T01:26:11.056Z,100896.06
2023-03-04T01:28:38.823Z,100874.38
2023-03-04T01:31:06.581Z,100877.47
2023-03-04T01:33:34.365Z,100883.03
2023-03-04T01:36:02.082Z,100876.59
2023-03-04T01:38:29.836Z,100874.78
2023-03-04T01:40:57.695Z,100871.03
2023-03-04T01:43:25.607Z,100863.94
2023-03-04T01:45:53.448Z,100853.09
2023-03-04T01:48:21.310Z,100858.00
2023-03-04T01:50:49.063Z,100856.63
2023-03-04T01:53:17.221Z,100846.25
2023-03-04T01:55:44.962Z,100842.81
2023-03-04T01:58:12.841Z,100841.84
2023-03-04T02:00:40.648Z,100837.78
2023-03-04T02:03:08.644Z,100837.78
2023-03-04T02:05:36.410Z,100839.66
2023-03-04T02:08:04.238Z,100835.94
2023-03-04T02:10:33.616Z,100838.81
2023-03-04T02:13:01.453Z,100835.72
2023-03-04T02:15:29.447Z,100841.97
2023-03-04T02:17:57.239Z,100841.84
2023-03-04T02:20:25.009Z,100836.94
2023-03-04T02:22:52.788Z,100836.09
2023-03-04T02:25:32.404Z,100835.25
2023-03-04T02:28:00.205Z,100832.22
2023-03-04T02:30:27.943Z,100824.25
2023-03-04T02:32:55.775Z,100828.97
2023-03-04T02:35:23.572Z,100819.84
2023-03-04T02:37:51.576Z,100814.03
2023-03-04T02:40:19.325Z,100820.16
2023-03-04T02:42:47.312Z,100820.53
2023-03-04T02:45:15.082Z,100806.66
2023-03-04T02:47:42.900Z,100807.66
2023-03-04T02:50:10.711Z,100809.69
2023-03-04T02:52:38.444Z,100803.25
2023-03-04T02:55:06.317Z,100796.81
2023-03-04T02:57:34.060Z,100793.97
2023-03-04T03:00:01.929Z,100795.97
2023-03-04T03:02:29.771Z,100793.13
2023-03-04T03:04:57.685Z,100790.41
2023-03-04T03:07:25.600Z,100795.25
2023-03-04T03:09:53.380Z,100791.19
2023-03-04T03:12:21.240Z,100787.44
2023-03-04T03:14:49.029Z,100787.44
2023-03-04T03:17:16.736Z,100786.59
2023-03-04T03:19:44.723Z,100784.59
2023-03-04T03:22:12.506Z,100788.69
2023-03-04T03:24:40.255Z,100788.22
2023-03-04T03:27:08.165Z,100789.38
2023-03-04T03:29:36.001Z,100785.44
2023-03-04T03:32:03.930Z,100787.00
2023-03-04T03:34:31.708Z,100787.69
2023-03-04T03:36:59.475Z,100791.38
2023-03-04T03:39:27.225Z,100775.13
2023-03-04T03:41:54.973Z,100780.53
2023-03-04T03:44:22.796Z,100777.69
2023-03-04T03:46:50.748Z,100774.84
2023-03-04T03:49:18.507Z,100771.41
2023-03-04T03:51:46.375Z,100770.03
2023-03-04T03:54:14.166Z,100777.44
2023-03-04T03:56:42.015Z,100768.00
2023-03-04T03:59:09.833Z,100776.84
2023-03-04T04:01:37.881Z,100761.88
2023-03-04T04:04:05.972Z,100768.00
2023-03-04T04:06:33.753Z,100762.44
2023-03-04T04:09:01.516Z,100762.25
2023-03-04T04:11:29.271Z,100764.28
2023-03-04T04:13:57.078Z,100756.63
2023-03-04T04:16:24.865Z,100751.03
2023-03-04T04:18:52.682Z,100756.47
2023-03-04T04:21:21.066Z,100757.88
2023-03-04T04:23:48.863Z,100756.13
2023-03-04T04:26:16.797Z,100758.19
2023-03-04T04:28:44.587Z,100755.75
2023-03-04T04:31:12.429Z,100755.63
2023-03-04T04:35:10.238Z,100761.19
2023-03-04T04:37:38.188Z,100757.47
2023-03-04T04:40:06.387Z,100756.69
2023-03-04T04:42:34.206Z,100756.84
2023-03-04T04:45:02.452Z,100754.13
2023-03-04T04:47:30.218Z,100753.44
2023-03-04T04:49:58.121Z,100750.56
2023-03-04T04:53:18.715Z,100748.72
2023-03-04T04:55:46.534Z,100745.28
2023-03-04T04:58:14.264Z,100741.59
2023-03-04T05:00:42.106Z,100737.47
2023-03-04T05:03:09.978Z,100743.94
2023-03-04T05:05:37.746Z,100745.78
2023-03-04T05:08:05.442Z,100747.34
2023-03-04T05:10:33.165Z,100738.19
2023-03-04T05:13:00.953Z,100744.31
2023-03-04T05:15:32.013Z,100737.00
2023-03-04T05:17:59.793Z,100745.00
2023-03-04T05:22:34.924Z,100735.31
2023-03-04T05:26:35.341Z,100735.16
2023-03-04T05:29:03.240Z,100733.47
2023-03-04T05:31:31.379Z,100733.78
2023-03-04T05:34:00.564Z,100731.97
2023-03-04T05:36:35.875Z,100722.72
2023-03-04T05:39:03.579Z,100730.00
2023-03-04T05:41:31.351Z,100725.69
2023-03-04T05:43:59.194Z,100723.03
2023-03-04T05:46:27.050Z,100720.69
2023-03-04T05:48:54.842Z,100727.16
2023-03-04T05:53:51.539Z,100715.19
2023-03-04T05:56:19.349Z,100717.00
2023-03-04T05:58:47.578Z,100718.56
2023-03-04T06:01:15.591Z,100714.84
2023-03-04T06:05:05.886Z,100720.44
2023-03-04T06:07:33.656Z,100721.97
2023-03-04T06:10:01.651Z,100719.44
2023-03-04T06:12:29.869Z,100727.38
2023-03-04T06:14:57.697Z,100723.69
2023-03-04T06:17:25.461Z,100728.44
2023-03-04T06:19:53.206Z,100731.06
2023-03-04T06:22:20.971Z,100728.78
2023-03-04T06:24:48.808Z,100734.63
2023-03-04T06:27:16.891Z,100730.03
2023-03-04T06:29:44.633Z,100733.28
2023-03-04T06:32:12.442Z,100724.09
2023-03-04T06:34:40.195Z,100727.56
2023-03-04T06:37:08.015Z,100734.00
2023-03-04T06:39:35.809Z,100733.94
2023-03-04T06:42:03.779Z,100731.53
2023-03-04T06:44:31.641Z,100733.38
2023-03-04T06:46:59.950Z,100733.59
2023-03-04T06:49:28.196Z,100734.66
2023-03-04T06:51:56.054Z,100725.47
2023-03-04T06:54:23.790Z,100739.84
2023-03-04T06:56:51.606Z,100736.97
2023-03-04T06:59:19.500Z,100729.66
2023-03-04T07:01:47.441Z,100725.09
2023-03-04T07:04:15.598Z,100729.19
2023-03-04T07:06:43.661Z,100735.47
2023-03-04T07:09:11.486Z,100728.50
2023-03-04T07:11:39.305Z,100729.19
2023-03-04T07:14:07.117Z,100718.13
2023-03-04T07:20:51.207Z,100730.88
2023-03-04T07:23:19.334Z,100731.56
2023-03-04T07:25:47.091Z,100734.09
2023-03-04T07:28:15.070Z,100737.00
2023-03-04T07:30:42.899Z,100733.25
2023-03-04T07:33:10.700Z,100738.19
2023-03-04T07:35:38.680Z,100741.75
2023-03-04T07:38:06.560Z,100742.25
2023-03-04T07:40:34.297Z,100745.44
2023-03-04T07:43:02.140Z,100746.63
2023-03-04T07:47:21.057Z,100746.13
2023-03-04T07:49:49.935Z,100735.06
2023-03-04T07:52:17.792Z,100729.69
2023-03-04T07:54:45.486Z,100732.59
2023-03-04T07:57:13.212Z,100734.28
2023-03-04T07:59:40.970Z,100737.66
2023-03-04T08:02:09.848Z,100731.22
2023-03-04T08:04:37.700Z,100731.16
2023-03-04T08:07:05.407Z,100744.94
2023-03-04T08:09:33.144Z,100733.22
2023-03-04T08:12:00.849Z,100727.09
2023-03-04T08:14:28.702Z,100728.44
2023-03-04T08:16:56.424Z,100728.63
2023-03-04T08:19:26.096Z,100723.75
2023-03-04T08:21:53.903Z,100724.78
2023-03-04T08:24:21.621Z,100715.53
2023-03-04T08:26:49.799Z,100707.94
2023-03-04T08:29:17.716Z,100712.28
2023-03-04T08:31:48.682Z,100713.03
2023-03-04T08:35:22.793Z,100712.09
2023-03-04T08:37:50.801Z,100708.09
2023-03-04T08:40:18.793Z,100714.75
2023-03-04T08:42:46.544Z,100703.91
2023-03-04T08:45:14.516Z,100701.56
2023-03-04T08:47:42.487Z,100707.69
2023-03-04T08:50:10.387Z,100697.53
2023-03-04T08:52:38.163Z,100701.69
2023-03-04T08:55:38.668Z,100702.94
2023-03-04T08:58:06.417Z,100704.09
2023-03-04T09:00:34.185Z,100697.00
2023-03-04T09:03:02.052Z,100696.53
2023-03-04T09:05:30.181Z,100692.66
2023-03-04T09:07:58.035Z,100695.41
2023-03-04T09:10:25.738Z,100696.28
2023-03-04T09:12:53.708Z,100692.72
2023-03-04T09:15:21.422Z,100689.31
2023-03-04T09:17:49.163Z,100688.47
2023-03-04T09:20:17.115Z,100683.72
2023-03-04T09:22:44.862Z,100695.66
2023-03-04T09:25:13.264Z,100694.13
2023-03-04T09:27:41.030Z,100692.44
2023-03-04T09:30:08.812Z,100692.31
2023-03-04T09:32:36.841Z,100684.31
2023-03-04T09:35:04.657Z,100685.50
2023-03-04T09:37:32.504Z,100687.03
2023-03-04T09:40:00.239Z,100698.44
2023-03-04T09:42:29.425Z,100699.28
2023-03-04T09:44:57.329Z,100689.25
2023-03-04T09:47:25.131Z,100688.03
2023-03-04T09:49:53.037Z,100688.38
2023-03-04T09:52:20.880Z,100684.63
2023-03-04T09:56:09.053Z,100683.03
2023-03-04T09:58:36.777Z,100680.53
2023-03-04T10:01:05.442Z,100683.28
2023-03-04T10:03:33.336Z,100677.19
2023-03-04T10:06:01.212Z,100664.22
2023-03-04T10:08:29.254Z,100671.88
2023-03-04T10:10:57.167Z,100661.72
2023-03-04T10:13:25.074Z,100666.28
2023-03-04T10:15:53.784Z,100660.16
2023-03-04T10:18:23.077Z,100662.75
2023-03-04T10:20:58.275Z,100658.81
2023-03-04T10:23:26.067Z,100655.28
2023-03-04T10:25:54.887Z,100667.00
2023-03-04T10:29:43.215Z,100664.28
2023-03-04T10:32:10.997Z,100661.34
2023-03-04T10:37:12.935Z,100658.16
2023-03-04T10:39:40.772Z,100656.13
2023-03-04T10:42:08.760Z,100661.56
2023-03-04T10:44:38.901Z,100649.50
2023-03-04T10:47:06.649Z,100653.22
2023-03-04T10:49:34.509Z,100654.75
2023-03-04T10:52:02.599Z,100651.34
2023-03-04T10:54:30.308Z,100651.34
2023-03-04T10:56:58.103Z,100655.94
2023-03-04T10:59:25.832Z,100651.53
2023-03-04T11:01:53.630Z,100647.63
2023-03-04T11:04:22.309Z,100645.59
2023-03-04T11:06:50.190Z,100643.72
2023-03-04T11:09:17.969Z,100632.31
2023-03-04T11:11:46.128Z,100632.66
2023-03-04T11:14:14.034Z,100627.91
2023-03-04T11:16:41.912Z,100630.25
2023-03-04T11:19:09.802Z,100629.59
2023-03-04T11:21:40.004Z,100636.41
2023-03-04T11:24:13.338Z,100638.78
2023-03-04T11:26:50.024Z,100643.03
2023-03-04T11:29:17.783Z,100637.06
2023-03-04T11:31:45.549Z,100648.13
2023-03-04T11:34:13.770Z,100637.28
2023-03-04T11:36:41.517Z,100644.38
2023-03-04T11:39:09.414Z,100643.53
2023-03-04T11:41:37.175Z,100643.69
2023-03-04T11:44:04.960Z,100643.88
2023-03-04T11:46:33.186Z,100634.03
2023-03-04T11:49:02.084Z,100633.03
2023-03-04T11:51:29.883Z,100622.16
2023-03-04T11:53:57.619Z,100625.03
2023-03-04T11:56:25.414Z,100620.78
2023-03-04T11:58:53.276Z,100616.53
2023-03-04T12:01:21.104Z,100612.13
2023-03-04T12:03:49.177Z,100602.44
2023-03-04T12:06:17.224Z,100606.19
2023-03-04T12:08:45.083Z,100594.63
2023-03-04T12:11:12.854Z,100600.41
2023-03-04T12:13:40.599Z,100594.97
2023-03-04T12:16:08.326Z,100600.06
2023-03-04T12:18:36.032Z,100591.72
2023-03-04T12:21:03.751Z,100597.00
2023-03-04T12:23:31.639Z,100592.91
2023-03-04T12:25:59.357Z,100592.25
2023-03-04T12:28:27.721Z,100589.53
2023-03-04T12:30:55.630Z,100586.13
2023-03-04T12:33:23.424Z,100583.44
2023-03-04T12:35:51.242Z,100579.88
2023-03-04T12:38:19.365Z,100582.22
2023-03-04T12:40:47.101Z,100575.75
2023-03-04T12:43:15.909Z,100578.28
2023-03-04T12:45:43.735Z,100575.91
2023-03-04T12:48:11.606Z,100566.16
2023-03-04T12:50:39.277Z,100566.91
2023-03-04T12:53:06.992Z,100565.66
2023-03-04T12:55:34.946Z,100568.38
2023-03-04T12:58:02.737Z,100560.75
2023-03-04T13:00:30.773Z,100556.50
2023-03-04T13:02:58.633Z,100555.47
2023-03-04T13:05:26.479Z,100573.78
2023-03-04T13:07:55.016Z,100566.16
2023-03-04T13:10:25.616Z,100564.31
2023-03-04T13:12:53.532Z,100563.47
2023-03-04T13:15:21.623Z,100562.63
2023-03-04T13:17:50.313Z,100563.47
2023-03-04T13:20:18.053Z,100555.66
2023-03-04T13:22:45.858Z,100550.56
2023-03-04T13:25:14.131Z,100552.47
2023-03-04T13:27:41.862Z,100542.94
2023-03-04T13:30:09.626Z,100544.94
2023-03-04T13:32:37.626Z,100538.22
2023-03-04T13:35:05.458Z,100540.84
2023-03-04T13:37:33.166Z,100544.69
2023-03-04T13:40:00.956Z,100548.34
2023-03-04T13:42:28.705Z,100550.78
2023-03-04T13:44:56.751Z,100546.09
2023-03-04T13:47:24.656Z,100544.06
2023-03-04T13:49:52.724Z,100555.56
2023-03-04T13:52:20.598Z,100545.38
2023-03-04T13:54:48.503Z,100554.09
2023-03-04T13:57:18.438Z,100543.94
2023-03-04T13:59:46.466Z,100532.94
2023-03-04T14:02:15.879Z,100527.19
2023-03-04T14:04:43.701Z,100539.47
2023-03-04T14:07:11.485Z,100533.38
2023-03-04T14:09:39.276Z,100536.00
2023-03-04T14:12:07.001Z,100534.47
2023-03-04T14:14:37.514Z,100534.34
2023-03-04T14:17:05.348Z,100533.00
2023-03-04T14:19:33.484Z,100537.13
2023-03-04T14:22:01.331Z,100529.19
2023-03-04T14:24:30.851Z,100532.63
2023-03-04T14:26:58.631Z,100530.78
2023-03-04T14:29:26.483Z,100533.19
2023-03-04T14:31:54.381Z,100532.84
2023-03-04T14:34:22.200Z,100525.00
2023-03-04T14:36:50.111Z,100525.25
2023-03-04T14:39:17.985Z,100521.75
2023-03-04T14:41:45.725Z,100527.38
2023-03-04T14:44:13.677Z,100523.81
2023-03-04T14:46:41.464Z,100532.88
2023-03-04T14:49:09.306Z,100530.75
2023-03-04T14:51:37.051Z,100530.66
2023-03-04T14:54:04.966Z,100530.78
2023-03-04T14:56:32.718Z,100520.69
2023-03-04T14:59:00.450Z,100521.09
2023-03-04T15:01:28.253Z,100514.66
2023-03-04T15:03:56.287Z,100517.03
2023-03-04T15:06:24.213Z,100510.44
2023-03-04T15:08:53.210Z,100506.91
2023-03-04T15:11:21.856Z,100504.56
2023-03-04T15:13:49.848Z,100510.09
2023-03-04T15:16:17.800Z,100509.00
2023-03-04T15:18:45.663Z,100501.22
2023-03-04T15:21:13.460Z,100500.28
2023-03-04T15:23:41.246Z,100497.44
2023-03-04T15:26:08.984Z,100493.03
2023-03-04T15:28:36.726Z,100489.19
2023-03-04T15:31:04.615Z,100494.88
2023-03-04T15:33:32.618Z,100488.94
2023-03-04T15:36:00.487Z,100501.38
2023-03-04T15:38:28.351Z,100505.66
2023-03-04T15:40:56.547Z,100508.75
2023-03-04T15:43:24.320Z,100507.75
2023-03-04T15:45:52.103Z,100508.50
2023-03-04T15:48:20.084Z,100502.38
2023-03-04T15:50:47.835Z,100510.84
2023-03-04T15:53:15.812Z,100506.78
2023-03-04T15:55:43.583Z,100515.59
2023-03-04T15:58:11.475Z,100510.53
2023-03-04T16:00:39.222Z,100507.97
2023-03-04T16:03:06.992Z,100505.59
2023-03-04T16:05:34.975Z,100505.09
2023-03-04T16:08:02.720Z,100512.75
2023-03-04T16:10:30.872Z,100512.94
2023-03-04T16:12:58.687Z,100523.50
2023-03-04T16:15:26.519Z,100515.84
2023-03-04T16:17:54.324Z,100522.34
2023-03-04T16:20:22.393Z,100518.75
2023-03-04T16:22:50.176Z,100518.41
2023-03-04T16:25:18.014Z,100517.31
2023-03-04T16:27:45.814Z,100514.19
2023-03-04T16:30:13.613Z,100523.88
2023-03-04T16:32:41.600Z,100519.53
2023-03-04T16:35:09.372Z,100516.19
2023-03-04T16:37:37.189Z,100511.41
2023-03-04T16:40:05.068Z,100512.66
2023-03-04T16:42:32.845Z,100516.84
2023-03-04T16:45:01.057Z,100517.69
2023-03-04T16:47:28.977Z,100517.56
2023-03-04T16:49:57.695Z,100527.38
2023-03-04T16:52:25.576Z,100521.91
2023-03-04T16:54:53.379Z,100522.72
2023-03-04T16:57:21.188Z,100531.22
2023-03-04T16:59:48.989Z,100527.50
2023-03-04T17:02:16.716Z,100532.09
2023-03-04T17:04:44.690Z,100534.81
2023-03-04T17:07:12.503Z,100539.25
2023-03-04T17:09:40.295Z,100546.13
2023-03-04T17:12:08.019Z,100536.81
2023-03-04T17:14:42.700Z,100545.53
2023-03-04T17:17:11.739Z,100542.59
2023-03-04T17:19:42.081Z,100541.72
2023-03-04T17:22:09.813Z,100554.09
2023-03-04T17:24:40.007Z,100546.56
2023-03-04T17:27:10.172Z,100544.91
2023-03-04T17:29:45.788Z,100548.50
2023-03-04T17:32:17.300Z,100545.00
2023-03-04T17:34:49.185Z,100558.84
2023-03-04T17:37:26.634Z,100554.66
2023-03-04T17:40:00.177Z,100554.72
2023-03-04T18:20:26.318Z,100543.94
2023-03-04T18:22:54.137Z,100548.19
2023-03-04T18:25:21.995Z,100549.75
2023-03-04T18:27:49.787Z,100542.44
2023-03-04T18:30:17.811Z,100537.69
2023-03-04T18:32:51.817Z,100536.00
2023-03-04T18:35:20.262Z,100535.16
2023-03-04T18:37:48.101Z,100531.59
2023-03-04T18:40:15.854Z,100544.88
2023-03-04T18:42:44.287Z,100536.19
2023-03-04T18:45:12.070Z,100534.31
2023-03-04T18:47:39.865Z,100539.25
2023-03-04T18:50:07.638Z,100539.75
2023-03-04T18:52:36.000Z,100530.63
2023-03-04T18:55:03.734Z,100529.44
2023-03-04T18:57:31.692Z,100533.00
2023-03-04T18:59:59.997Z,100535.91
2023-03-04T19:02:27.969Z,100539.44
2023-03-04T19:04:55.699Z,100542.00
2023-03-04T19:07:23.852Z,100543.28
2023-03-04T19:09:51.648Z,100546.75
2023-03-04T19:12:19.388Z,100547.16
2023-03-04T19:14:47.262Z,100557.03
2023-03-04T19:17:15.306Z,100558.53
2023-03-04T19:19:43.108Z,100562.47
2023-03-04T19:22:10.874Z,100555.97
2023-03-04T19:24:38.666Z,100558.22
2023-03-04T19:27:06.509Z,100554.56
2023-03-04T19:29:34.464Z,100557.06
2023-03-04T19:32:02.343Z,100556.34
2023-03-04T19:34:30.152Z,100561.72
2023-03-04T19:36:57.888Z,100561.66
2023-03-04T19:39:25.735Z,100570.41
2023-03-04T19:41:53.490Z,100565.03
2023-03-04T19:44:21.315Z,100555.50
2023-03-04T19:46:49.112Z,100560.34
2023-03-04T19:49:16.930Z,100556.44
2023-03-04T19:51:44.756Z,100549.84
2023-03-04T19:54:12.515Z,100551.94
2023-03-04T19:56:40.270Z,100557.59
2023-03-04T19:59:08.047Z,100552.88
2023-03-04T20:01:35.785Z,100553.38
2023-03-04T20:04:03.639Z,100561.03
2023-03-04T20:06:31.388Z,100560.34
2023-03-04T20:08:59.206Z,100568.03
2023-03-04T20:11:26.997Z,100562.59
2023-03-04T20:13:55.112Z,100560.50
2023-03-04T20:16:22.868Z,100557.03
2023-03-04T20:18:50.784Z,100560.78
2023-03-04T20:21:18.977Z,100562.91
2023-03-04T20:23:46.772Z,100557.09
2023-03-04T20:26:14.643Z,100565.31
2023-03-04T20:28:42.428Z,100563.97
2023-03-04T20:31:10.432Z,100560.44
2023-03-04T20:33:38.195Z,100574.53
2023-03-04T20:36:05.961Z,100577.63
2023-03-04T20:38:33.754Z,100564.34
2023-03-04T20:41:02.024Z,100571.84
2023-03-04T20:43:31.229Z,100565.41
2023-03-04T20:45:59.039Z,100568.47
2023-03-04T20:48:27.122Z,100566.75
2023-03-04T20:50:54.882Z,100563.34
2023-03-04T20:53:22.645Z,100568.78
2023-03-04T20:55:50.437Z,100569.50
2023-03-04T20:58:18.227Z,100572.22
2023-03-04T21:00:48.489Z,100564.56
2023-03-04T21:03:16.421Z,100574.75
2023-03-04T21:05:44.178Z,100570.84
2023-03-04T21:08:13.463Z,100563.53
2023-03-04T21:10:41.208Z,100574.09
2023-03-04T21:13:11.287Z,100569.66
2023-03-04T21:15:39.103Z,100567.13
2023-03-04T21:18:06.914Z,100560.81
2023-03-04T21:20:34.752Z,100563.88
2023-03-04T21:23:02.466Z,100564.72
2023-03-04T21:25:30.372Z,100567.78
2023-03-04T21:27:58.177Z,100565.75
2023-03-04T21:30:25.967Z,100566.78
2023-03-04T21:32:54.141Z,100570.84
2023-03-04T21:35:22.275Z,100570.69
2023-03-04T21:37:51.427Z,100568.31
2023-03-04T21:40:19.280Z,100571.03
2023-03-04T21:42:47.134Z,100572.22
2023-03-04T21:45:15.059Z,100572.38
2023-03-04T21:47:42.812Z,100566.44
2023-03-04T21:50:10.752Z,100559.97
2023-03-04T21:52:38.519Z,100563.34
2023-03-04T21:55:06.438Z,100547.41
2023-03-04T21:57:34.355Z,100552.84
2023-03-04T22:00:02.476Z,100554.53
2023-03-04T22:02:31.113Z,100549.09
2023-03-04T22:04:59.015Z,100559.09
2023-03-04T22:07:26.798Z,100553.00
2023-03-04T22:09:55.638Z,100546.88
2023-03-04T22:12:23.484Z,100551.47
2023-03-04T22:14:51.308Z,100543.16
2023-03-04T22:17:19.099Z,100540.44
2023-03-04T22:19:46.946Z,100549.44
2023-03-04T22:22:17.981Z,100552.16
2023-03-04T22:24:45.843Z,100544.84
2023-03-04T22:27:13.617Z,100539.56
2023-03-04T22:29:41.578Z,100546.53
2023-03-04T22:32:09.355Z,100548.59
2023-03-04T22:34:37.363Z,100537.19
2023-03-04T22:37:05.081Z,100539.22
2023-03-04T22:39:32.820Z,100542.13
2023-03-04T22:42:00.715Z,100530.72
2023-03-04T22:44:28.490Z,100534.13
2023-03-04T22:46:56.222Z,100537.03
2023-03-04T22:49:24.104Z,100534.63
2023-03-04T22:51:51.795Z,100526.00
2023-03-04T22:54:19.795Z,100532.78
2023-03-04T22:56:47.556Z,100525.31
2023-03-04T22:59:15.503Z,100524.81
2023-03-04T23:01:43.298Z,100518.88
2023-03-04T23:04:11.298Z,100521.75
2023-03-04T23:06:39.065Z,100523.63
2023-03-04T23:09:06.938Z,100521.75
2023-03-04T23:11:35.398Z,100512.25
2023-03-04T23:14:06.470Z,100511.91
2023-03-04T23:16:37.194Z,100507.81
2023-03-04T23:19:05.056Z,100519.88
2023-03-04T23:21:34.007Z,100515.47
2023-03-04T23:24:02.387Z,100520.22
2023-03-04T23:26:30.570Z,100523.63
2023-03-04T23:29:01.320Z,100515.47
2023-03-04T23:31:29.092Z,100518.88
2023-03-04T23:33:57.577Z,100519.88
2023-03-04T23:36:25.447Z,100524.09
2023-03-04T23:38:53.261Z,100522.56
2023-03-04T23:41:21.292Z,100520.56
2023-03-04T23:43:49.053Z,100520.56
2023-03-04T23:46:16.812Z,100519.19
2023-03-04T23:48:46.344Z,100516.31
2023-03-04T23:51:14.251Z,100516.16
2023-03-04T23:53:41.952Z,100513.59
2023-03-04T23:56:09.692Z,100508.66
2023-03-04T23:58:37.689Z,100509.84
